Time;durP1;ratioP1;P1;durP2;ratioP2;P2;SDS_P1;SDS_P2;PMS_P1;PMS_P2;Temp;Humidity;BMP_temperature;BMP_pressure;BME280_temperature;BME280_humidity;BME280_pressure;Samples;Min_cycle;Max_cycle;Signal;HPM_P1;HPM_P2
2023/12/18 05:43:16;;;;;;;;;;;;;;;3.80;100.00;100736.60;107869;1271;24189;-49
2023/12/18 05:45:43;;;;;;;;;;;;;;;3.81;100.00;100740.95;107358;1269;22516;-57
2023/12/18 05:48:10;;;;;;;;;;;;;;;3.83;100.00;100738.94;108088;1268;22525;-49
2023/12/18 05:50:37;;;;;;;;;;;;;;;3.85;100.00;100743.16;107565;1278;22520;-56
2023/12/18 05:53:04;;;;;;;;;;;;;;;3.88;100.00;100741.34;108225;1269;22569;-48
2023/12/18 05:55:31;;;;;;;;;;;;;;;3.90;100.00;100737.98;109412;1266;23196;-48
2023/12/18 05:57:58;;;;;;;;;;;;;;;3.91;100.00;100731.63;109494;1268;23274;-50
2023/12/18 06:00:24;;;;;;;;;;;;;;;3.92;100.00;100732.87;109485;1269;22611;-54
2023/12/18 06:02:51;;;;;;;;;;;;;;;3.94;100.00;100722.55;109037;1272;23162;-55
2023/12/18 06:05:17;;;;;;;;;;;;;;;3.94;100.00;100723.47;109212;1268;22577;-56
2023/12/18 06:07:44;;;;;;;;;;;;;;;3.95;100.00;100727.47;110048;1278;23114;-56
2023/12/18 06:10:10;;;;;;;;;;;;;;;3.95;100.00;100726.44;109998;1270;23384;-56
2023/12/18 06:12:37;;;;;;;;;;;;;;;3.97;100.00;100726.66;109976;1269;22436;-56
2023/12/18 06:15:05;;;;;;;;;;;;;;;3.99;100.00;100726.05;109679;1262;22511;-55
2023/12/18 06:17:32;;;;;;;;;;;;;;;4.01;100.00;100726.10;109455;1269;22503;-56
2023/12/18 06:19:59;;;;;;;;;;;;;;;4.02;100.00;100720.27;109217;1275;22504;-56
2023/12/18 06:22:28;;;;;;;;;;;;;;;4.03;100.00;100723.05;109597;1273;23197;-47
2023/12/18 06:25:01;;;;;;;;;;;;;;;4.05;100.00;100716.54;109393;1273;22551;-55
2023/12/18 06:27:30;;;;;;;;;;;;;;;4.07;100.00;100721.46;109295;1275;22518;-56
2023/12/18 06:30:03;;;;;;;;;;;;;;;4.09;100.00;100732.40;108726;1272;23549;-54
2023/12/18 06:32:48;;;;;;;;;;;;;;;4.10;100.00;100722.77;108784;1278;22636;-47
2023/12/18 06:36:04;;;;;;;;;;;;;;;4.13;100.00;100721.48;109051;1272;23024;-55
2023/12/18 06:39:32;;;;;;;;;;;;;;;4.17;100.00;100711.23;109464;1271;22900;-56
2023/12/18 06:46:09;;;;;;;;;;;;;;;4.23;100.00;100700.57;109253;1273;22528;-55
2023/12/18 06:49:14;;;;;;;;;;;;;;;4.26;100.00;100696.70;109185;1273;22854;-49
2023/12/18 06:51:54;;;;;;;;;;;;;;;4.28;100.00;100689.84;109029;1262;24181;-49
2023/12/18 06:54:56;;;;;;;;;;;;;;;4.29;100.00;100684.02;108470;1275;22507;-50
2023/12/18 06:58:04;;;;;;;;;;;;;;;4.29;100.00;100674.20;109370;1273;22489;-50
2023/12/18 07:00:31;;;;;;;;;;;;;;;4.31;100.00;100656.27;109348;1273;22512;-48
2023/12/18 07:03:08;;;;;;;;;;;;;;;4.33;100.00;100641.30;109177;1272;23015;-54
2023/12/18 07:05:39;;;;;;;;;;;;;;;4.35;100.00;100649.16;108645;1275;23009;-57
2023/12/18 07:08:22;;;;;;;;;;;;;;;4.39;100.00;100653.05;108500;1275;24374;-48
2023/12/18 07:11:26;;;;;;;;;;;;;;;4.42;100.00;100645.91;109607;1272;23006;-48
2023/12/18 07:14:02;;;;;;;;;;;;;;;4.45;100.00;100634.05;108316;1278;22540;-48
2023/12/18 07:19:54;;;;;;;;;;;;;;;4.52;100.00;100647.05;109456;1269;23148;-55
2023/12/18 07:22:42;;;;;;;;;;;;;;;4.55;100.00;100639.91;108799;1273;24962;-56
2023/12/18 07:25:17;;;;;;;;;;;;;;;4.58;100.00;100652.94;108387;1272;23688;-51
2023/12/18 07:28:09;;;;;;;;;;;;;;;4.61;100.00;100656.48;109105;1273;22502;-48
2023/12/18 07:30:37;;;;;;;;;;;;;;;4.63;100.00;100666.05;108923;1278;25387;-49
2023/12/18 07:33:06;;;;;;;;;;;;;;;4.63;100.00;100673.98;108956;1272;23079;-49
2023/12/18 07:35:34;;;;;;;;;;;;;;;4.61;100.00;100672.90;109799;1273;22481;-49
2023/12/18 07:38:01;;;;;;;;;;;;;;;4.60;100.00;100674.27;109312;1272;22503;-54
2023/12/18 07:40:31;;;;;;;;;;;;;;;4.59;100.00;100678.73;109516;1272;22520;-49
2023/12/18 07:42:57;;;;;;;;;;;;;;;4.60;100.00;100678.58;109729;1266;23865;-55
2023/12/18 07:45:24;;;;;;;;;;;;;;;4.60;100.00;100685.84;109221;1279;22512;-49
2023/12/18 07:47:51;;;;;;;;;;;;;;;4.61;100.00;100678.62;109662;1276;23122;-55
2023/12/18 07:50:18;;;;;;;;;;;;;;;4.63;100.00;100672.08;109768;1272;22490;-48
2023/12/18 07:52:46;;;;;;;;;;;;;;;4.63;100.00;100674.15;109410;1272;22520;-47
2023/12/18 07:55:19;;;;;;;;;;;;;;;4.63;100.00;100676.06;109237;1273;23772;-56
2023/12/18 07:58:05;;;;;;;;;;;;;;;4.64;100.00;100669.37;109130;1273;22488;-48
2023/12/18 08:00:33;;;;;;;;;;;;;;;4.66;100.00;100670.81;109249;1272;24219;-55
2023/12/18 08:03:11;;;;;;;;;;;;;;;4.67;100.00;100678.44;109497;1273;22511;-54
2023/12/18 08:05:53;;;;;;;;;;;;;;;4.68;100.00;100683.46;109527;1276;23376;-47
2023/12/18 08:08:20;;;;;;;;;;;;;;;4.68;100.00;100683.14;109622;1277;22496;-54
2023/12/18 08:10:47;;;;;;;;;;;;;;;4.69;100.00;100686.63;109731;1273;22503;-56
2023/12/18 08:13:14;;;;;;;;;;;;;;;4.70;100.00;100679.59;109396;1273;22519;-55
2023/12/18 08:15:41;;;;;;;;;;;;;;;4.72;100.00;100678.94;108882;1275;22491;-55
2023/12/18 08:18:15;;;;;;;;;;;;;;;4.73;100.00;100670.52;109047;1273;22656;-55
2023/12/18 08:20:54;;;;;;;;;;;;;;;4.75;100.00;100664.52;109014;1278;23917;-49
2023/12/18 08:23:24;;;;;;;;;;;;;;;4.78;100.00;100667.89;109484;1269;22607;-54
2023/12/18 08:25:51;;;;;;;;;;;;;;;4.80;100.00;100668.45;109118;1272;22523;-53
2023/12/18 08:28:18;;;;;;;;;;;;;;;4.82;100.00;100664.88;109104;1273;22632;-47
2023/12/18 08:30:53;;;;;;;;;;;;;;;4.85;100.00;100660.14;108687;1273;22528;-56
2023/12/18 08:33:32;;;;;;;;;;;;;;;4.89;100.00;100653.84;108205;1276;22536;-60
2023/12/18 08:36:08;;;;;;;;;;;;;;;4.94;100.00;100642.57;108885;1274;23057;-54
2023/12/18 08:38:35;;;;;;;;;;;;;;;4.98;100.00;100640.80;109342;1273;22591;-48
2023/12/18 08:41:10;;;;;;;;;;;;;;;5.03;100.00;100640.44;109033;1274;22594;-55
2023/12/18 08:43:39;;;;;;;;;;;;;;;5.07;100.00;100632.92;109199;1272;22616;-56
2023/12/18 08:46:12;;;;;;;;;;;;;;;5.09;100.00;100623.63;108910;1273;22906;-56
2023/12/18 08:48:48;;;;;;;;;;;;;;;5.12;100.00;100618.36;108946;1273;22985;-48
2023/12/18 08:51:25;;;;;;;;;;;;;;;5.17;100.00;100616.08;109266;1276;22521;-49
2023/12/18 08:53:54;;;;;;;;;;;;;;;5.23;100.00;100615.20;108502;1279;22508;-48
2023/12/18 08:56:21;;;;;;;;;;;;;;;5.27;100.00;100618.77;109103;1263;22509;-54
2023/12/18 08:58:49;;;;;;;;;;;;;;;5.28;100.00;100622.77;109119;1278;22522;-54
2023/12/18 09:01:25;;;;;;;;;;;;;;;5.28;100.00;100622.44;108644;1275;22549;-55
2023/12/18 09:04:10;;;;;;;;;;;;;;;5.29;100.00;100614.50;108389;1276;25255;-55
2023/12/18 09:06:52;;;;;;;;;;;;;;;5.30;100.00;100600.69;109349;1275;22955;-49
2023/12/18 09:09:45;;;;;;;;;;;;;;;5.33;100.00;100588.15;108876;1274;22722;-55
2023/12/18 09:12:12;;;;;;;;;;;;;;;5.34;100.00;100590.08;109260;1275;23223;-49
2023/12/18 09:14:39;;;;;;;;;;;;;;;5.33;100.00;100590.89;109670;1276;23314;-48
2023/12/18 09:17:06;;;;;;;;;;;;;;;5.32;100.00;100584.47;109739;1274;22421;-48
2023/12/18 09:19:33;;;;;;;;;;;;;;;5.33;100.00;100580.86;109229;1269;23906;-48
2023/12/18 09:22:00;;;;;;;;;;;;;;;5.34;100.00;100570.00;109799;1278;22726;-48
2023/12/18 09:24:44;;;;;;;;;;;;;;;5.34;100.00;100557.88;108979;1276;22501;-48
2023/12/18 09:27:12;;;;;;;;;;;;;;;5.31;100.00;100566.29;109137;1279;23349;-54
2023/12/18 09:29:39;;;;;;;;;;;;;;;5.29;100.00;100564.34;109515;1279;22578;-48
2023/12/18 09:32:07;;;;;;;;;;;;;;;5.27;100.00;100566.70;109608;1281;22425;-47
2023/12/18 09:34:34;;;;;;;;;;;;;;;5.26;100.00;100563.72;109621;1273;23689;-47
2023/12/18 09:37:13;;;;;;;;;;;;;;;5.25;100.00;100557.83;109635;1279;22450;-48
2023/12/18 09:39:52;;;;;;;;;;;;;;;5.25;100.00;100558.87;109572;1276;23224;-50
2023/12/18 09:42:19;;;;;;;;;;;;;;;5.25;100.00;100561.63;108956;1272;23357;-49
2023/12/18 09:44:48;;;;;;;;;;;;;;;5.24;100.00;100560.91;109640;1276;22857;-49
2023/12/18 09:47:17;;;;;;;;;;;;;;;5.22;100.00;100558.12;109551;1276;23161;-56
2023/12/18 09:49:46;;;;;;;;;;;;;;;5.20;100.00;100556.84;109274;1279;22501;-53
2023/12/18 09:58:54;;;;;;;;;;;;;;;5.19;100.00;100560.43;109118;1281;22527;-56
2023/12/18 10:01:41;;;;;;;;;;;;;;;5.17;100.00;100557.80;108420;1277;22498;-47
2023/12/18 10:04:10;;;;;;;;;;;;;;;5.16;100.00;100555.89;108622;1280;23512;-48
2023/12/18 10:06:37;;;;;;;;;;;;;;;5.16;100.00;100555.52;109106;1276;24209;-48
2023/12/18 10:09:13;;;;;;;;;;;;;;;5.16;100.00;100549.83;109234;1279;25404;-56
2023/12/18 10:11:41;;;;;;;;;;;;;;;5.18;100.00;100550.73;109492;1275;22584;-55
2023/12/18 10:14:09;;;;;;;;;;;;;;;5.17;100.00;100543.96;108891;1277;22553;-55
2023/12/18 10:16:38;;;;;;;;;;;;;;;5.17;100.00;100542.59;109017;1276;22509;-48
2023/12/18 10:19:07;;;;;;;;;;;;;;;5.16;100.00;100536.85;108424;1275;22574;-49
2023/12/18 10:21:36;;;;;;;;;;;;;;;5.14;100.00;100534.36;109606;1266;23299;-50
2023/12/18 10:24:04;;;;;;;;;;;;;;;5.12;100.00;100534.67;109404;1275;23461;-48
2023/12/18 10:26:32;;;;;;;;;;;;;;;5.11;100.00;100531.70;108210;1274;22493;-56
2023/12/18 10:29:00;;;;;;;;;;;;;;;5.09;100.00;100533.89;109371;1267;22435;-48
2023/12/18 10:31:28;;;;;;;;;;;;;;;5.07;100.00;100531.95;109454;1276;22431;-48
2023/12/18 10:33:55;;;;;;;;;;;;;;;5.05;100.00;100532.42;109594;1281;23780;-47
2023/12/18 10:36:22;;;;;;;;;;;;;;;5.03;100.00;100534.95;109322;1280;306754;-48
2023/12/18 10:38:52;;;;;;;;;;;;;;;5.01;100.00;100533.36;109651;1275;22904;-49
2023/12/18 10:41:21;;;;;;;;;;;;;;;5.00;100.00;100530.92;109600;1276;22525;-47
2023/12/18 10:47:38;;;;;;;;;;;;;;;4.98;100.00;100533.77;109151;1274;22528;-56
2023/12/18 10:53:09;;;;;;;;;;;;;;;4.98;100.00;100535.70;109624;1273;22465;-57
2023/12/18 11:00:24;;;;;;;;;;;;;;;5.02;100.00;100533.38;109601;1263;22472;-50
2023/12/18 11:03:39;;;;;;;;;;;;;;;5.04;100.00;100531.67;109322;1274;22875;-55
2023/12/18 11:06:20;;;;;;;;;;;;;;;5.04;100.00;100528.94;109631;1279;22457;-55
2023/12/18 11:09:12;;;;;;;;;;;;;;;5.02;100.00;100524.38;109556;1273;23266;-48
2023/12/18 11:12:16;;;;;;;;;;;;;;;5.00;100.00;100528.83;109286;1274;22511;-51
2023/12/18 11:15:01;;;;;;;;;;;;;;;4.98;100.00;100528.25;109460;1273;23159;-49
2023/12/18 11:17:33;;;;;;;;;;;;;;;4.97;100.00;100527.87;109746;1270;22555;-50
2023/12/18 11:20:00;;;;;;;;;;;;;;;4.95;100.00;100527.66;109644;1276;23342;-49
2023/12/18 11:22:41;;;;;;;;;;;;;;;4.94;100.00;100528.66;109612;1273;22532;-49
2023/12/18 11:25:08;;;;;;;;;;;;;;;4.93;100.00;100526.05;109650;1275;22431;-60
2023/12/18 11:27:50;;;;;;;;;;;;;;;4.93;100.00;100523.26;109502;1273;22485;-48
2023/12/18 11:30:29;;;;;;;;;;;;;;;4.93;100.00;100521.89;109500;1273;22440;-47
2023/12/18 11:32:56;;;;;;;;;;;;;;;4.93;100.00;100525.03;108489;1277;22604;-55
2023/12/18 11:35:26;;;;;;;;;;;;;;;4.94;100.00;100526.95;109621;1276;23077;-48
2023/12/18 11:37:53;;;;;;;;;;;;;;;4.93;100.00;100525.17;109441;1270;22495;-47
2023/12/18 11:40:34;;;;;;;;;;;;;;;4.94;100.00;100522.09;109536;1276;22466;-47
2023/12/18 11:43:01;;;;;;;;;;;;;;;4.95;100.00;100521.27;109288;1271;22609;-48
2023/12/18 11:45:27;;;;;;;;;;;;;;;4.94;100.00;100519.17;109425;1277;22526;-47
2023/12/18 11:47:57;;;;;;;;;;;;;;;4.94;100.00;100518.47;109456;1275;22417;-48
2023/12/18 11:50:27;;;;;;;;;;;;;;;4.93;100.00;100515.70;108995;1273;22788;-48
2023/12/18 11:52:55;;;;;;;;;;;;;;;4.95;100.00;100516.77;109554;1275;22504;-48
2023/12/18 11:55:37;;;;;;;;;;;;;;;4.95;100.00;100514.36;109582;1273;22861;-47
2023/12/18 11:58:05;;;;;;;;;;;;;;;4.95;100.00;100518.14;109311;1273;23087;-46
2023/12/18 12:00:35;;;;;;;;;;;;;;;4.95;100.00;100520.75;109046;1273;22802;-53
2023/12/18 12:03:04;;;;;;;;;;;;;;;4.95;100.00;100519.20;108823;1274;22592;-53
2023/12/18 12:05:35;;;;;;;;;;;;;;;4.95;100.00;100518.31;109287;1275;22544;-47
2023/12/18 12:08:02;;;;;;;;;;;;;;;4.93;100.00;100520.70;109297;1277;22528;-52
2023/12/18 12:10:29;;;;;;;;;;;;;;;4.93;100.00;100520.34;109274;1280;22568;-47
2023/12/18 12:12:57;;;;;;;;;;;;;;;4.94;100.00;100522.62;109469;1277;22536;-46
2023/12/18 12:15:41;;;;;;;;;;;;;;;4.94;100.00;100529.36;109670;1281;22442;-51
2023/12/18 12:18:52;;;;;;;;;;;;;;;4.95;100.00;100529.57;109763;1275;22481;-53
2023/12/18 12:30:08;;;;;;;;;;;;;;;4.85;100.00;100533.42;109676;1279;23426;-52
2023/12/18 12:33:37;;;;;;;;;;;;;;;4.82;100.00;100541.48;109682;1273;23614;-46
2023/12/18 12:40:57;;;;;;;;;;;;;;;4.73;100.00;100551.96;109376;1274;23453;-54
2023/12/18 12:43:24;;;;;;;;;;;;;;;4.68;100.00;100559.08;109701;1279;22433;-53
2023/12/18 12:46:42;;;;;;;;;;;;;;;4.65;100.00;100568.48;108939;1274;22513;-53
2023/12/18 12:49:12;;;;;;;;;;;;;;;4.61;100.00;100572.16;109929;1274;22423;31
2023/12/18 12:51:39;;;;;;;;;;;;;;;4.58;100.00;100573.28;109728;1279;22596;-53
2023/12/18 12:54:08;;;;;;;;;;;;;;;4.54;100.00;100574.93;109448;1271;22563;-49
2023/12/18 12:56:35;;;;;;;;;;;;;;;4.52;100.00;100576.40;109477;1275;23269;-46
2023/12/18 12:59:03;;;;;;;;;;;;;;;4.50;100.00;100575.83;109380;1278;22478;-47
2023/12/18 13:01:32;;;;;;;;;;;;;;;4.47;100.00;100573.53;109716;1281;23158;-53
2023/12/18 13:03:59;;;;;;;;;;;;;;;4.45;100.00;100576.73;109673;1280;23781;-53
2023/12/18 13:06:26;;;;;;;;;;;;;;;4.44;100.00;100573.58;109735;1265;22524;-49
2023/12/18 13:08:54;;;;;;;;;;;;;;;4.42;100.00;100574.23;109689;1276;22474;-53
2023/12/18 13:11:26;;;;;;;;;;;;;;;4.41;100.00;100576.42;109702;1281;23796;-53
2023/12/18 13:13:53;;;;;;;;;;;;;;;4.39;100.00;100578.63;109604;1281;22581;-53
2023/12/18 13:16:24;;;;;;;;;;;;;;;4.39;100.00;100574.64;109725;1272;22442;-53
2023/12/18 13:18:51;;;;;;;;;;;;;;;4.38;100.00;100576.36;109691;1279;23101;-54
2023/12/18 13:21:18;;;;;;;;;;;;;;;4.38;100.00;100574.62;109757;1280;22474;-53
2023/12/18 13:23:45;;;;;;;;;;;;;;;4.39;100.00;100581.20;109740;1280;23372;-47
2023/12/18 13:26:11;;;;;;;;;;;;;;;4.39;100.00;100584.67;109755;1279;22437;-49
2023/12/18 13:28:38;;;;;;;;;;;;;;;4.38;100.00;100586.54;109786;1280;22479;-49
2023/12/18 13:31:05;;;;;;;;;;;;;;;4.37;100.00;100589.96;109727;1276;22517;-55
2023/12/18 13:33:32;;;;;;;;;;;;;;;4.35;100.00;100597.14;109886;1280;22442;-49
2023/12/18 13:36:00;;;;;;;;;;;;;;;4.33;100.00;100603.30;109868;1280;23349;-48
2023/12/18 13:38:26;;;;;;;;;;;;;;;4.32;100.00;100600.67;109863;1280;22466;-54
2023/12/18 13:40:53;;;;;;;;;;;;;;;4.31;100.00;100605.33;109835;1269;23307;-55
2023/12/18 13:43:20;;;;;;;;;;;;;;;4.32;100.00;100606.03;109690;1280;23610;-54
2023/12/18 13:45:47;;;;;;;;;;;;;;;4.33;100.00;100609.51;109896;1280;23323;-49
2023/12/18 13:48:14;;;;;;;;;;;;;;;4.33;100.00;100606.94;109752;1280;22576;-47
2023/12/18 13:50:42;;;;;;;;;;;;;;;4.33;100.00;100604.19;109720;1280;23618;-47
2023/12/18 13:53:12;;;;;;;;;;;;;;;4.33;100.00;100600.89;109674;1276;22487;-47
2023/12/18 13:55:39;;;;;;;;;;;;;;;4.33;100.00;100602.61;109902;1280;22434;-46
2023/12/18 13:58:06;;;;;;;;;;;;;;;4.33;100.00;100601.05;109935;1280;22457;-54
2023/12/18 14:00:33;;;;;;;;;;;;;;;4.32;100.00;100601.23;109938;1280;23025;-53
2023/12/18 14:03:03;;;;;;;;;;;;;;;4.32;100.00;100602.42;109921;1280;22428;-53
2023/12/18 14:05:30;;;;;;;;;;;;;;;4.32;100.00;100604.30;109962;1280;22491;-47
2023/12/18 14:07:56;;;;;;;;;;;;;;;4.31;100.00;100599.45;109948;1270;22523;-47
2023/12/18 14:10:23;;;;;;;;;;;;;;;4.30;100.00;100596.50;109953;1280;23006;-53
2023/12/18 14:12:50;;;;;;;;;;;;;;;4.30;100.00;100597.02;109920;1280;22460;-54
2023/12/18 14:15:17;;;;;;;;;;;;;;;4.31;100.00;100598.94;109966;1280;23289;-53
2023/12/18 14:17:43;;;;;;;;;;;;;;;4.31;100.00;100600.67;109941;1267;23286;-54
2023/12/18 14:20:10;;;;;;;;;;;;;;;4.31;100.00;100596.86;109901;1281;22991;-54
2023/12/18 14:22:37;;;;;;;;;;;;;;;4.32;100.00;100601.02;109235;1280;22983;-47
2023/12/18 14:25:05;;;;;;;;;;;;;;;4.32;100.00;100602.41;109939;1280;23016;-54
2023/12/18 14:27:32;;;;;;;;;;;;;;;4.32;100.00;100604.49;109992;1280;22434;-47
2023/12/18 14:30:00;;;;;;;;;;;;;;;4.33;100.00;100608.30;110010;1280;22456;-48
2023/12/18 14:32:27;;;;;;;;;;;;;;;4.33;100.00;100613.67;109981;1280;22672;-54
2023/12/18 14:34:53;;;;;;;;;;;;;;;4.33;100.00;100611.77;110010;1280;22667;-54
2023/12/18 14:37:21;;;;;;;;;;;;;;;4.33;100.00;100610.03;108479;1281;22515;-54
2023/12/18 14:39:47;;;;;;;;;;;;;;;4.33;100.00;100612.28;107489;1278;22509;-54
2023/12/18 14:42:14;;;;;;;;;;;;;;;4.32;100.00;100608.98;108302;1280;22576;-53
2023/12/18 14:44:44;;;;;;;;;;;;;;;4.31;100.00;100611.21;109387;1281;25278;-53
2023/12/18 14:47:17;;;;;;;;;;;;;;;4.30;100.00;100613.60;109668;1280;22494;-47
2023/12/18 14:49:44;;;;;;;;;;;;;;;4.30;100.00;100615.33;109982;1280;22468;-48
2023/12/18 14:52:10;;;;;;;;;;;;;;;4.29;100.00;100617.01;109050;1267;22514;-49
2023/12/18 14:54:37;;;;;;;;;;;;;;;4.28;100.00;100619.58;108571;1280;25262;-49
2023/12/18 14:57:04;;;;;;;;;;;;;;;4.28;100.00;100618.04;108306;1281;22511;-54
2023/12/18 14:59:31;;;;;;;;;;;;;;;4.29;100.00;100620.46;108069;1280;22518;-54
2023/12/18 15:01:58;;;;;;;;;;;;;;;4.30;100.00;100619.27;108795;1280;23261;-47
2023/12/18 15:04:27;;;;;;;;;;;;;;;4.29;100.00;100622.19;107745;1281;23346;-49
2023/12/18 15:06:57;;;;;;;;;;;;;;;4.29;100.00;100626.01;106801;1280;22563;-53
2023/12/18 15:09:24;;;;;;;;;;;;;;;4.30;100.00;100633.96;108926;1280;22501;-54
2023/12/18 15:11:52;;;;;;;;;;;;;;;4.30;100.00;100637.41;110028;1280;23005;-54
2023/12/18 15:14:18;;;;;;;;;;;;;;;4.28;100.00;100641.70;110029;1280;22515;-47
2023/12/18 15:16:45;;;;;;;;;;;;;;;4.28;100.00;100645.13;109736;1280;22519;-54
2023/12/18 15:19:12;;;;;;;;;;;;;;;4.27;100.00;100643.90;107620;1280;22549;-49
2023/12/18 15:21:39;;;;;;;;;;;;;;;4.27;100.00;100644.58;107930;1280;22530;-53
